Airfield :
LOGIN :

Register | Disclaimer

   EN    FR    IT 

 










Legend :    VFR   Marginal VFR   IFR   Intensive IFR   Very Intensive IFR
Visi :
Ceiling :
>= 8 km
>= 3000ft
5 to 8 km
1000 to 3000 ft
1500m to 5 km
500 to 1000 ft
800 to 1500m
200 to 500 ft
< 800m
< 200 ft
Symbols :   Thunderstorms  Fog  Heavy snow  Heavy precipitations  Wind > 20 kt
SIGMETs :     Misc.  Thunderstorms  Icing  Turbulence  Mountain Waves  Volcanic Ashes







- Airport Elevation : 62 ft
- IATA code : TAN


GMTT - Tanger Ibn Batouta

CURRENT METAR :
  • 242230Z 20006KT 160V230 9999 FEW016 SCT200 17/13 Q1014 NOSIG

EXPIRED METARs :
  • 242200Z 20006KT 9999 FEW016 SCT200 17/13 Q1014 NOSIG
  • 242130Z 21007KT 170V240 9999 FEW016 SCT200 17/13 Q1014 NOSIG
  • 242100Z 22005KT 190V260 9999 FEW016 SCT200 17/13 Q1014 NOSIG
  • 242030Z 23006KT 9999 FEW016 SCT200 17/13 Q1013 NOSIG
  • 242000Z 23007KT 210V270 9999 FEW016 SCT200 18/13 Q1013 NOSIG

TAF TAF GMTT
Valid from the 24 at 18:00 until the 26 at 00:00 UTC


241700Z 2418/2524 24012KT 9999 FEW016 SCT200
PROB30 2503/2509 VRB02KT 3000 BR
No reported NOTAMs for that airfield.



MET'MAP, your aeronautical weather chart ! - Copyright ORBIFLY December 2007 - Disclaimer

ORBIFLY MET'MAP TEAM :

Programming & Development : Alexandra Zaïnal
Concept & Development : Baudouin d'Aumeries
Co-Development & Prog : Marc-Olivier Méhu
Technical & hardware support : Manuel Goepfert

Contact : metmap@orbifly.com




SOURCES & CREDITS :

   NOAA